Time;durP1;ratioP1;P1;durP2;ratioP2;P2;SDS_P1;SDS_P2;PMS_P1;PMS_P2;Temp;Humidity;BMP_temperature;BMP_pressure;BME280_temperature;BME280_humidity;BME280_pressure;Samples;Min_cycle;Max_cycle;Signal;HPM_P1;HPM_P2
2020/12/10 00:02:27;;;;;;;31.40;13.07;;;3.30;98.30;;;;;;5039148;28;20408;-80
2020/12/10 00:04:53;;;;;;;47.63;17.83;;;3.40;98.60;;;;;;5039273;28;20434;-79
2020/12/10 00:07:23;;;;;;;58.25;17.45;;;3.40;99.00;;;;;;5038944;28;20193;-79
2020/12/10 00:09:51;;;;;;;37.78;16.17;;;3.50;99.10;;;;;;5038996;28;20174;-80
2020/12/10 00:12:17;;;;;;;44.88;17.45;;;3.60;98.90;;;;;;5039242;28;20173;-80
2020/12/10 00:14:43;;;;;;;50.60;17.83;;;3.50;97.20;;;;;;5039454;28;20207;-79
2020/12/10 00:17:09;;;;;;;45.27;17.70;;;3.50;97.20;;;;;;5039062;28;20201;-79
2020/12/10 00:19:34;;;;;;;52.63;17.80;;;3.50;97.30;;;;;;5038841;28;20444;-80
2020/12/10 00:22:00;;;;;;;47.13;16.10;;;3.60;97.90;;;;;;5038199;28;20196;-80
2020/12/10 00:24:26;;;;;;;43.07;17.20;;;3.60;97.70;;;;;;5038571;28;20400;-79
2020/12/10 00:26:52;;;;;;;52.80;18.10;;;3.60;97.40;;;;;;5039473;28;20272;-79
2020/12/10 00:29:18;;;;;;;46.10;17.93;;;3.50;96.90;;;;;;5039184;28;20207;-79
2020/12/10 00:31:44;;;;;;;51.92;17.52;;;3.50;97.00;;;;;;5038793;28;20173;-79
2020/12/10 00:34:09;;;;;;;43.70;17.20;;;3.60;97.50;;;;;;5039241;28;20175;-79
2020/12/10 00:36:35;;;;;;;55.83;18.57;;;3.60;97.40;;;;;;5038282;28;20428;-79
2020/12/10 00:39:01;;;;;;;39.70;15.33;;;3.70;97.30;;;;;;5037922;28;20475;-79
2020/12/10 00:41:27;;;;;;;46.43;17.07;;;3.70;97.20;;;;;;5038741;28;20184;-80
2020/12/10 00:43:52;;;;;;;49.97;18.27;;;3.70;97.20;;;;;;5038541;28;20404;-79
2020/12/10 00:46:18;;;;;;;47.40;15.70;;;3.70;96.80;;;;;;5038448;28;20176;-79
2020/12/10 00:48:44;;;;;;;39.73;15.53;;;3.60;96.10;;;;;;5038308;28;20426;-79
2020/12/10 00:51:10;;;;;;;45.63;15.87;;;3.50;96.30;;;;;;5038793;28;20200;-79
2020/12/10 00:53:35;;;;;;;46.37;17.77;;;3.50;96.10;;;;;;5038676;28;20420;-79
2020/12/10 00:56:01;;;;;;;51.50;17.10;;;3.50;96.20;;;;;;5038409;28;20177;-80
2020/12/10 00:58:27;;;;;;;48.43;16.97;;;3.50;96.40;;;;;;5038439;28;20204;-78
2020/12/10 01:00:53;;;;;;;41.30;15.17;;;3.50;96.60;;;;;;5039361;28;20426;-79
2020/12/10 01:03:20;;;;;;;45.75;16.95;;;3.50;97.00;;;;;;5043012;28;20407;-79
2020/12/10 01:05:45;;;;;;;51.00;17.35;;;3.60;97.60;;;;;;5043343;28;20212;-79
2020/12/10 01:08:11;;;;;;;44.70;15.70;;;3.60;97.50;;;;;;5042899;28;20193;-79
2020/12/10 01:10:40;;;;;;;43.22;15.90;;;3.70;97.20;;;;;;5060449;28;20454;-79
2020/12/10 01:13:06;;;;;;;37.33;16.60;;;3.70;96.50;;;;;;5043062;28;20169;-79
2020/12/10 01:15:32;;;;;;;38.83;15.90;;;3.70;95.50;;;;;;5042348;28;20195;-79
2020/12/10 01:17:58;;;;;;;45.70;17.27;;;3.70;95.30;;;;;;5042094;28;21050;-80
2020/12/10 01:20:24;;;;;;;46.57;15.53;;;3.60;95.20;;;;;;5042855;28;20232;-79
2020/12/10 01:22:50;;;;;;;38.08;15.32;;;3.50;95.40;;;;;;5042054;28;20919;-79
2020/12/10 01:25:16;;;;;;;41.80;17.10;;;3.50;95.40;;;;;;5042556;28;20199;-79
2020/12/10 01:27:41;;;;;;;42.37;14.20;;;3.40;95.60;;;;;;5042658;28;20487;-79
2020/12/10 01:30:07;;;;;;;45.00;15.63;;;3.50;95.90;;;;;;5042696;28;20419;-80
2020/12/10 01:32:33;;;;;;;42.07;17.83;;;3.50;95.90;;;;;;5042291;28;20177;-80
2020/12/10 01:34:59;;;;;;;38.10;15.63;;;3.50;95.90;;;;;;5042811;28;20431;-80
2020/12/10 01:37:25;;;;;;;36.17;13.63;;;3.60;96.50;;;;;;5042391;28;20205;-80
2020/12/10 01:39:51;;;;;;;37.90;15.45;;;3.60;96.50;;;;;;5042177;28;20881;-79
2020/12/10 01:42:17;;;;;;;55.47;17.17;;;3.60;96.30;;;;;;5042135;28;20165;-79
2020/12/10 01:44:43;;;;;;;46.37;18.50;;;3.60;96.00;;;;;;5042252;28;20176;-79
2020/12/10 01:47:09;;;;;;;42.25;17.42;;;3.70;95.90;;;;;;5042978;28;20456;-79
2020/12/10 01:49:38;;;;;;;43.92;14.55;;;3.70;95.50;;;;;;5042428;28;20280;-79
2020/12/10 01:52:05;;;;;;;44.28;16.25;;;3.70;96.00;;;;;;5042273;28;20672;-79
2020/12/10 01:54:32;;;;;;;38.35;16.60;;;3.70;95.60;;;;;;5060058;28;20195;-79
2020/12/10 01:56:58;;;;;;;44.75;15.77;;;3.70;95.40;;;;;;5041621;28;20216;-79
2020/12/10 01:59:24;;;;;;;41.07;16.43;;;3.80;95.00;;;;;;5041551;28;20584;-79
2020/12/10 02:01:50;;;;;;;45.15;14.90;;;3.70;94.80;;;;;;5041830;28;20927;-79
2020/12/10 02:04:30;;;;;;;44.08;16.08;;;3.70;94.60;;;;;;5042357;28;20315;-80
2020/12/10 02:06:57;;;;;;;49.83;16.33;;;3.70;94.60;;;;;;5041749;28;20196;-79
2020/12/10 02:09:23;;;;;;;45.70;15.73;;;3.60;94.80;;;;;;5041933;28;20177;-79
2020/12/10 02:11:50;;;;;;;44.55;15.77;;;3.60;95.40;;;;;;5041194;28;20173;-79
2020/12/10 02:14:16;;;;;;;40.38;15.63;;;3.60;95.20;;;;;;5041726;28;20263;-79
2020/12/10 02:16:42;;;;;;;50.03;16.83;;;3.60;95.50;;;;;;5041747;28;20221;-79
2020/12/10 02:19:09;;;;;;;45.47;15.95;;;3.50;94.70;;;;;;5041954;28;20856;-79
2020/12/10 02:21:35;;;;;;;41.72;17.13;;;3.50;94.70;;;;;;5042137;28;20188;-80
2020/12/10 02:24:01;;;;;;;42.80;17.50;;;3.40;95.70;;;;;;5041859;28;20169;-79
2020/12/10 02:26:27;;;;;;;39.77;15.17;;;3.40;95.90;;;;;;5041492;28;20791;-79
2020/12/10 02:28:58;;;;;;;46.03;17.23;;;3.50;96.00;;;;;;5041360;28;20442;-79
2020/12/10 02:31:25;;;;;;;43.22;16.15;;;3.50;96.60;;;;;;5042435;28;20420;-80
2020/12/10 02:33:51;;;;;;;41.45;14.63;;;3.50;96.90;;;;;;5041388;28;20192;-79
2020/12/10 02:36:17;;;;;;;46.40;17.30;;;3.60;97.40;;;;;;5041799;28;20213;-80
2020/12/10 02:38:43;;;;;;;43.40;16.00;;;3.60;97.60;;;;;;5041254;28;20558;-80
2020/12/10 02:41:14;;;;;;;45.50;17.70;;;3.60;97.10;;;;;;5041259;28;20418;-79
2020/12/10 02:43:40;;;;;;;41.70;15.10;;;3.70;96.50;;;;;;5041374;28;20457;-79
2020/12/10 02:46:06;;;;;;;45.08;16.13;;;3.70;95.90;;;;;;5040739;28;20197;-80
2020/12/10 02:48:31;;;;;;;40.63;15.73;;;3.60;95.10;;;;;;5040697;28;20176;-79
2020/12/10 02:51:00;;;;;;;36.63;15.13;;;3.60;94.50;;;;;;5039815;28;20506;-80
2020/12/10 02:53:30;;;;;;;45.08;15.93;;;3.70;94.20;;;;;;5040642;28;20932;-79
2020/12/10 02:55:55;;;;;;;39.28;14.32;;;3.60;92.80;;;;;;5040241;28;20216;-79
2020/12/10 02:58:22;;;;;;;46.03;14.30;;;3.60;93.60;;;;;;5040181;28;20189;-80
2020/12/10 03:00:48;;;;;;;44.65;16.75;;;3.60;93.60;;;;;;5041058;28;20204;-77
2020/12/10 03:03:14;;;;;;;39.97;13.23;;;3.60;93.90;;;;;;5040349;28;20170;-79
2020/12/10 03:05:39;;;;;;;39.20;15.82;;;3.50;93.10;;;;;;5040255;28;20415;-79
2020/12/10 03:08:05;;;;;;;38.83;14.70;;;3.50;93.80;;;;;;5040646;28;20199;-79
2020/12/10 03:10:31;;;;;;;45.23;16.53;;;3.50;93.60;;;;;;5040630;28;20566;-79
2020/12/10 03:12:57;;;;;;;38.00;14.10;;;3.50;93.30;;;;;;5040092;28;20177;-79
2020/12/10 03:15:23;;;;;;;39.63;16.10;;;3.50;94.00;;;;;;5040354;28;20181;-80
2020/12/10 03:17:49;;;;;;;44.90;15.73;;;3.60;94.80;;;;;;5040623;28;20784;-79
2020/12/10 03:20:16;;;;;;;41.83;14.13;;;3.60;94.90;;;;;;5039722;28;20967;-79
2020/12/10 03:22:42;;;;;;;39.47;15.80;;;3.70;95.20;;;;;;5040094;28;20237;-79
2020/12/10 03:25:07;;;;;;;46.07;16.43;;;3.70;95.10;;;;;;5039918;28;20196;-80
2020/12/10 03:27:33;;;;;;;40.10;16.17;;;3.60;94.60;;;;;;5040108;28;20432;-79
2020/12/10 03:29:59;;;;;;;34.13;15.07;;;3.60;93.70;;;;;;5039868;28;20931;-78
2020/12/10 03:32:25;;;;;;;34.07;13.30;;;3.60;94.00;;;;;;5039521;28;20177;-80
2020/12/10 03:34:50;;;;;;;49.90;15.80;;;3.60;93.80;;;;;;5040013;28;20176;-80
2020/12/10 03:37:16;;;;;;;41.50;15.40;;;3.60;94.40;;;;;;5040529;28;20223;-80
2020/12/10 03:39:42;;;;;;;46.73;16.43;;;3.60;93.90;;;;;;5040110;28;20479;-79
2020/12/10 03:42:08;;;;;;;45.27;16.23;;;3.60;94.00;;;;;;5040743;28;20408;-79
2020/12/10 03:44:33;;;;;;;48.67;16.30;;;3.60;94.90;;;;;;5040986;28;20170;-79
2020/12/10 03:46:59;;;;;;;46.43;16.50;;;3.60;94.90;;;;;;5040233;28;20239;-80
2020/12/10 03:49:25;;;;;;;38.93;15.03;;;3.60;94.70;;;;;;5040404;28;20420;-79
2020/12/10 03:51:51;;;;;;;48.80;16.83;;;3.60;95.00;;;;;;5040027;28;20422;-79
2020/12/10 03:54:17;;;;;;;48.53;16.80;;;3.50;94.80;;;;;;5040638;28;20272;-79
2020/12/10 03:56:43;;;;;;;41.90;16.70;;;3.60;94.60;;;;;;5039689;28;20489;-79
2020/12/10 03:59:09;;;;;;;44.30;16.02;;;3.60;94.90;;;;;;5039336;28;20455;-79
2020/12/10 04:01:35;;;;;;;40.72;14.80;;;3.60;95.30;;;;;;5039329;28;20238;-79
2020/12/10 04:04:01;;;;;;;45.42;15.85;;;3.60;94.90;;;;;;5039514;28;20169;-79
2020/12/10 04:06:27;;;;;;;47.47;16.55;;;3.50;95.00;;;;;;5039278;28;20193;-79
2020/12/10 04:08:53;;;;;;;52.10;18.02;;;3.50;95.40;;;;;;5039225;28;20536;-79
2020/12/10 04:11:19;;;;;;;42.45;14.07;;;3.50;95.60;;;;;;5038755;28;20541;-79
2020/12/10 04:13:45;;;;;;;45.55;15.85;;;3.60;95.00;;;;;;5038815;28;20204;-79
2020/12/10 04:16:11;;;;;;;44.70;16.80;;;3.60;93.80;;;;;;5038886;28;20222;-79
2020/12/10 04:18:39;;;;;;;42.03;16.88;;;3.50;93.80;;;;;;5038962;28;20419;-79
2020/12/10 04:21:06;;;;;;;45.30;16.83;;;3.50;94.90;;;;;;5039017;28;20168;-80
2020/12/10 04:23:32;;;;;;;43.78;15.90;;;3.50;95.60;;;;;;5038612;28;20530;-79
2020/12/10 04:25:57;;;;;;;42.97;15.70;;;3.50;95.30;;;;;;5056868;28;20165;-79
2020/12/10 04:28:23;;;;;;;51.50;17.87;;;3.40;95.20;;;;;;5038739;28;20973;-80
2020/12/10 04:30:49;;;;;;;44.33;17.50;;;3.40;95.60;;;;;;5038847;28;20419;-79
2020/12/10 04:33:15;;;;;;;51.17;17.25;;;3.40;94.90;;;;;;5038704;28;20419;-80
2020/12/10 04:35:42;;;;;;;44.70;16.07;;;3.40;94.80;;;;;;5039107;28;20172;-79
2020/12/10 04:38:08;;;;;;;52.70;19.02;;;3.40;95.00;;;;;;5039607;28;20448;-79
2020/12/10 04:40:34;;;;;;;48.55;20.42;;;3.40;95.80;;;;;;5039468;28;20211;-78
2020/12/10 04:43:05;;;;;;;48.15;17.60;;;3.40;96.50;;;;;;5039578;28;20225;-79
2020/12/10 04:45:31;;;;;;;40.33;15.20;;;3.50;96.40;;;;;;5040819;28;20215;-80
2020/12/10 04:47:59;;;;;;;45.72;16.13;;;3.50;95.70;;;;;;5039642;28;20189;-80
2020/12/10 04:50:26;;;;;;;43.70;17.77;;;3.50;95.30;;;;;;5040031;28;20651;-80
2020/12/10 04:52:53;;;;;;;43.85;17.27;;;3.50;94.40;;;;;;5038356;28;20169;-80
2020/12/10 04:55:23;;;;;;;45.15;16.40;;;3.50;94.30;;;;;;5038639;28;20260;-79
2020/12/10 04:57:53;;;;;;;58.88;17.08;;;3.60;95.30;;;;;;5039193;28;20673;-79
2020/12/10 05:00:19;;;;;;;44.70;19.08;;;3.60;95.10;;;;;;5038676;28;20208;-79
2020/12/10 05:02:45;;;;;;;52.90;16.58;;;3.50;94.10;;;;;;5038712;28;20173;-79
2020/12/10 05:05:29;;;;;;;40.58;15.95;;;3.60;94.90;;;;;;5039348;28;20195;-79
2020/12/10 05:07:58;;;;;;;42.75;16.08;;;3.60;95.10;;;;;;5039183;28;20250;-79
2020/12/10 05:10:24;;;;;;;41.00;15.23;;;3.60;94.80;;;;;;5039252;28;20173;-79
2020/12/10 05:12:49;;;;;;;41.38;15.98;;;3.60;94.50;;;;;;5039155;28;20191;-79
2020/12/10 05:15:35;;;;;;;39.37;15.27;;;3.60;94.10;;;;;;5038479;28;20180;-79
2020/12/10 05:18:12;;;;;;;38.85;16.33;;;3.50;94.00;;;;;;5039670;28;20440;-79
2020/12/10 05:20:44;;;;;;;51.20;17.50;;;3.50;94.00;;;;;;5038968;28;20213;-79
2020/12/10 05:23:15;;;;;;;43.42;13.80;;;3.50;93.50;;;;;;5038734;28;20204;-79
2020/12/10 05:25:45;;;;;;;43.13;14.85;;;3.50;93.60;;;;;;5037777;28;20200;-79
2020/12/10 05:28:11;;;;;;;45.42;16.05;;;3.40;93.60;;;;;;5038524;28;20880;-79
2020/12/10 05:30:37;;;;;;;41.38;15.00;;;3.40;93.90;;;;;;5038734;28;20173;-79
2020/12/10 05:33:14;;;;;;;43.20;15.53;;;3.40;93.50;;;;;;5038433;28;20783;-79
2020/12/10 05:35:40;;;;;;;38.30;12.07;;;3.40;93.70;;;;;;5038727;28;20169;-79
2020/12/10 05:38:09;;;;;;;35.22;12.02;;;3.30;93.00;;;;;;5106259;23;20228;-85
2020/12/10 05:40:36;;;;;;;36.05;13.43;;;3.30;94.30;;;;;;5040883;28;20216;-84
2020/12/10 05:43:03;;;;;;;45.67;14.35;;;3.30;94.40;;;;;;5039472;28;20549;-84
2020/12/10 05:45:29;;;;;;;32.63;12.38;;;3.40;94.60;;;;;;5039860;28;20173;-85
2020/12/10 05:47:59;;;;;;;40.83;14.10;;;3.40;94.20;;;;;;5042534;28;20196;-83
2020/12/10 05:50:31;;;;;;;38.28;13.55;;;3.50;93.40;;;;;;5043727;28;20427;-85
2020/12/10 05:52:56;;;;;;;45.55;15.88;;;3.50;93.80;;;;;;5045050;28;20177;-83
2020/12/10 05:55:22;;;;;;;38.00;15.07;;;3.50;94.30;;;;;;5044131;28;20173;-85
2020/12/10 05:57:48;;;;;;;42.60;14.60;;;3.50;94.70;;;;;;5045453;28;20220;-83
2020/12/10 06:00:14;;;;;;;44.17;16.25;;;3.50;94.90;;;;;;5044788;28;20824;-84
2020/12/10 06:02:41;;;;;;;52.17;16.00;;;3.50;94.70;;;;;;5044377;28;20165;-83
2020/12/10 06:05:08;;;;;;;38.97;15.88;;;3.40;94.50;;;;;;5044376;28;20466;-84
2020/12/10 06:07:34;;;;;;;46.92;16.45;;;3.40;94.40;;;;;;5044519;28;20204;-85
2020/12/10 06:10:00;;;;;;;42.23;15.60;;;3.40;94.50;;;;;;5044433;28;20177;-84
2020/12/10 06:12:26;;;;;;;44.60;16.70;;;3.40;95.00;;;;;;5044339;28;20422;-84
2020/12/10 06:14:58;;;;;;;47.88;17.33;;;3.50;95.00;;;;;;5044849;28;20177;-83
2020/12/10 06:17:24;;;;;;;57.20;18.27;;;3.50;95.40;;;;;;5043745;28;20855;-83
2020/12/10 06:19:50;;;;;;;48.80;16.92;;;3.50;95.60;;;;;;5045471;28;20727;-84
2020/12/10 06:22:30;;;;;;;47.03;16.70;;;3.40;95.30;;;;;;5045014;28;20170;-84
2020/12/10 06:25:01;;;;;;;45.70;19.58;;;3.30;95.50;;;;;;5045970;28;20935;-85
2020/12/10 06:27:29;;;;;;;51.13;17.10;;;3.30;95.40;;;;;;5045526;28;20193;-84
2020/12/10 06:30:12;;;;;;;44.53;16.98;;;3.30;95.80;;;;;;5045066;28;20213;-83
2020/12/10 06:32:49;;;;;;;49.03;17.02;;;3.30;96.30;;;;;;5043263;28;20164;-83
2020/12/10 06:35:37;;;;;;;48.45;15.52;;;3.40;95.40;;;;;;5043303;28;20279;-85
2020/12/10 06:38:04;;;;;;;56.38;19.30;;;3.40;95.30;;;;;;5043615;28;20955;-84
2020/12/10 06:40:38;;;;;;;46.08;14.70;;;3.40;95.60;;;;;;5043152;28;20185;-83
2020/12/10 06:43:06;;;;;;;62.53;20.23;;;3.40;95.60;;;;;;5042421;28;20265;-84
2020/12/10 06:45:42;;;;;;;54.70;18.45;;;3.40;95.60;;;;;;5042237;28;20173;-83
2020/12/10 06:48:08;;;;;;;57.75;19.27;;;3.50;95.60;;;;;;5041996;28;20250;-85
2020/12/10 06:50:37;;;;;;;43.47;16.95;;;3.50;95.50;;;;;;5042336;28;20241;-83
2020/12/10 06:53:13;;;;;;;37.38;16.00;;;3.50;95.80;;;;;;5041739;28;20231;-85
2020/12/10 06:56:03;;;;;;;43.83;15.65;;;3.50;95.60;;;;;;5041867;28;20204;-85
2020/12/10 06:58:35;;;;;;;45.38;15.70;;;3.50;95.30;;;;;;5042164;28;20164;-83
2020/12/10 07:01:22;;;;;;;46.80;17.20;;;3.50;95.50;;;;;;5043426;28;20180;-84
2020/12/10 07:03:51;;;;;;;47.28;15.70;;;3.50;95.40;;;;;;5044607;28;20161;-84
2020/12/10 07:06:19;;;;;;;42.65;16.05;;;3.60;95.50;;;;;;5045258;28;20169;-84
2020/12/10 07:09:18;;;;;;;48.40;17.17;;;3.60;95.20;;;;;;5046848;28;20169;-83
2020/12/10 07:11:45;;;;;;;43.50;13.65;;;3.50;94.70;;;;;;5009327;28;20695;-86
2020/12/10 07:14:32;;;;;;;47.58;16.95;;;3.40;94.70;;;;;;5041368;28;20165;-84
2020/12/10 07:17:00;;;;;;;41.00;15.55;;;3.40;96.00;;;;;;5041124;28;20688;-84
2020/12/10 07:19:25;;;;;;;54.63;16.90;;;3.40;96.50;;;;;;5042128;28;20193;-83
2020/12/10 07:21:51;;;;;;;39.30;15.37;;;3.50;96.60;;;;;;5041071;28;20173;-84
2020/12/10 07:24:17;;;;;;;47.77;15.60;;;3.50;95.80;;;;;;5041900;28;20499;-84
2020/12/10 07:26:43;;;;;;;45.90;14.83;;;3.50;94.90;;;;;;5041229;28;20428;-84
2020/12/10 07:29:09;;;;;;;50.30;17.38;;;3.50;94.80;;;;;;5041665;28;20419;-85
2020/12/10 07:31:35;;;;;;;40.72;15.75;;;3.50;94.00;;;;;;5041475;28;20184;-84
2020/12/10 07:34:01;;;;;;;42.23;15.03;;;3.40;94.10;;;;;;5040940;28;20534;-84
2020/12/10 07:36:30;;;;;;;39.67;14.95;;;3.40;95.00;;;;;;5041004;28;20448;-84
2020/12/10 07:38:56;;;;;;;51.33;17.50;;;3.50;95.50;;;;;;5040860;28;20555;-84
2020/12/10 07:41:21;;;;;;;42.13;16.60;;;3.50;95.40;;;;;;5039972;28;20191;-85
2020/12/10 07:43:49;;;;;;;54.53;15.43;;;3.60;95.60;;;;;;5040059;28;20419;-85
2020/12/10 07:46:16;;;;;;;36.72;14.73;;;3.60;95.60;;;;;;5040704;28;20177;-85
2020/12/10 07:48:43;;;;;;;40.95;15.35;;;3.60;95.80;;;;;;5041225;28;20177;-84
2020/12/10 07:51:17;;;;;;;41.67;14.77;;;3.70;95.70;;;;;;5042514;28;20170;-85
2020/12/10 07:53:43;;;;;;;33.60;14.10;;;3.70;95.30;;;;;;5041648;28;20212;-85
2020/12/10 07:56:11;;;;;;;46.30;14.07;;;3.80;94.70;;;;;;5040858;28;20605;-83
2020/12/10 07:58:46;;;;;;;39.15;14.73;;;3.80;94.50;;;;;;5040643;28;20415;-85
2020/12/10 08:01:12;;;;;;;47.88;15.48;;;3.80;94.80;;;;;;5039961;28;20640;-83
2020/12/10 08:03:53;;;;;;;49.33;16.08;;;3.80;94.50;;;;;;5043035;28;20173;-84
2020/12/10 08:06:18;;;;;;;45.97;15.13;;;3.80;94.00;;;;;;5040591;28;20160;-84
2020/12/10 08:08:49;;;;;;;44.30;15.40;;;3.90;93.90;;;;;;5040433;28;20232;-84
2020/12/10 08:11:16;;;;;;;36.50;13.70;;;3.90;94.80;;;;;;5039454;28;20162;-85
2020/12/10 08:14:03;;;;;;;38.75;14.27;;;3.80;94.30;;;;;;5039897;28;20176;-84
2020/12/10 08:16:43;;;;;;;46.53;15.25;;;3.80;94.10;;;;;;5039647;28;20289;-84
2020/12/10 08:19:18;;;;;;;51.25;14.75;;;3.80;94.30;;;;;;5039368;28;20189;-84
2020/12/10 08:21:46;;;;;;;40.05;13.35;;;3.80;94.70;;;;;;5039353;28;20545;-84
2020/12/10 08:24:14;;;;;;;37.88;13.50;;;3.70;94.50;;;;;;5041653;28;20173;-87
2020/12/10 08:26:41;;;;;;;31.75;12.38;;;3.70;94.40;;;;;;5042719;28;20224;-84
2020/12/10 08:29:13;;;;;;;43.80;13.93;;;3.80;94.20;;;;;;5039408;28;20173;-84
2020/12/10 08:31:39;;;;;;;35.92;13.75;;;3.80;94.50;;;;;;5039450;28;20165;-84
2020/12/10 08:34:16;;;;;;;43.47;15.97;;;3.80;93.90;;;;;;5039878;28;20172;-86
2020/12/10 08:36:43;;;;;;;37.03;14.63;;;3.70;94.00;;;;;;5040239;28;20438;-84
2020/12/10 08:39:09;;;;;;;35.60;12.65;;;3.80;94.30;;;;;;5039362;28;20216;-83
2020/12/10 08:41:36;;;;;;;37.63;13.80;;;3.80;94.10;;;;;;5039877;28;20165;-84
2020/12/10 08:44:02;;;;;;;41.78;12.10;;;3.90;93.60;;;;;;5039509;28;21000;-84
2020/12/10 08:46:29;;;;;;;33.00;12.80;;;3.90;93.20;;;;;;5039797;28;20219;-83
2020/12/10 08:48:57;;;;;;;35.08;14.20;;;3.90;93.40;;;;;;5039497;28;20228;-85
2020/12/10 08:51:36;;;;;;;34.15;13.13;;;3.90;93.00;;;;;;5038987;28;20184;-85
2020/12/10 08:54:02;;;;;;;34.35;13.68;;;3.90;92.90;;;;;;5039420;28;20173;-84
2020/12/10 08:56:35;;;;;;;34.78;12.38;;;3.90;93.40;;;;;;5039018;28;20193;-85
2020/12/10 08:59:01;;;;;;;47.17;16.23;;;4.00;93.30;;;;;;5039289;28;20567;-85
2020/12/10 09:01:26;;;;;;;38.83;15.07;;;4.00;94.00;;;;;;5039239;28;20172;-84
2020/12/10 09:03:52;;;;;;;40.03;15.20;;;4.00;94.30;;;;;;5039931;28;20169;-85
2020/12/10 09:06:18;;;;;;;53.70;17.03;;;4.00;94.40;;;;;;5038420;28;20419;-85
2020/12/10 09:08:44;;;;;;;42.43;16.87;;;4.10;94.40;;;;;;5039857;28;20438;-84
2020/12/10 09:11:09;;;;;;;52.23;18.10;;;4.20;94.80;;;;;;5038639;28;20173;-84
2020/12/10 09:13:35;;;;;;;54.63;17.00;;;4.20;94.80;;;;;;5039192;28;20201;-85
2020/12/10 09:16:01;;;;;;;45.27;16.07;;;4.20;93.50;;;;;;5039669;28;20404;-84
2020/12/10 09:18:27;;;;;;;41.77;14.67;;;4.20;93.80;;;;;;5040754;28;20466;-84
2020/12/10 09:20:55;;;;;;;50.57;17.10;;;4.30;93.20;;;;;;5040024;28;20541;-84
2020/12/10 09:23:20;;;;;;;43.80;16.35;;;4.30;92.60;;;;;;5043539;28;20434;-84
2020/12/10 09:25:46;;;;;;;43.67;16.20;;;4.20;92.10;;;;;;5043411;28;20169;-85
2020/12/10 09:28:12;;;;;;;36.97;13.73;;;4.20;93.20;;;;;;5042754;28;20442;-85
2020/12/10 09:30:40;;;;;;;34.42;12.77;;;4.30;92.20;;;;;;5041973;28;20929;-84
2020/12/10 09:33:06;;;;;;;36.25;13.35;;;4.40;93.20;;;;;;5040665;28;20222;-83
2020/12/10 09:35:32;;;;;;;35.35;13.85;;;4.40;91.20;;;;;;5042782;28;20177;-88
2020/12/10 09:38:01;;;;;;;44.33;12.15;;;4.40;90.20;;;;;;5041715;28;20243;-86
2020/12/10 09:40:27;;;;;;;37.47;10.93;;;4.40;90.40;;;;;;5040883;28;20204;-87
2020/12/10 09:42:53;;;;;;;30.88;11.70;;;4.50;90.30;;;;;;5039501;28;20224;-88
2020/12/10 09:45:19;;;;;;;22.20;9.85;;;4.50;89.50;;;;;;5040508;28;20173;-83
2020/12/10 09:47:46;;;;;;;23.80;8.82;;;4.50;90.60;;;;;;5041319;28;20661;-85
2020/12/10 09:50:28;;;;;;;20.58;6.97;;;4.50;89.10;;;;;;5041521;28;20230;-85
2020/12/10 09:52:59;;;;;;;17.98;6.60;;;4.60;88.90;;;;;;5041197;28;20161;-84
2020/12/10 09:58:03;;;;;;;19.92;7.53;;;4.70;88.40;;;;;;5062534;28;20193;-86
2020/12/10 10:00:29;;;;;;;23.40;8.57;;;4.80;88.00;;;;;;5044303;28;20204;-86
2020/12/10 10:02:55;;;;;;;14.90;7.10;;;4.80;85.50;;;;;;5042132;28;20533;-85
2020/12/10 10:05:21;;;;;;;20.37;9.10;;;4.80;86.30;;;;;;5041444;28;20458;-87
2020/12/10 10:07:46;;;;;;;20.40;9.20;;;4.80;86.70;;;;;;5039537;28;20193;-86
2020/12/10 10:10:12;;;;;;;18.80;8.33;;;4.90;88.00;;;;;;5039443;28;20523;-87
2020/12/10 10:12:38;;;;;;;16.90;7.70;;;5.00;88.10;;;;;;5041304;28;20411;-83
2020/12/10 10:15:04;;;;;;;13.77;6.00;;;5.10;88.50;;;;;;5041445;28;20412;-83
2020/12/10 10:17:30;;;;;;;15.47;6.37;;;4.90;85.50;;;;;;5042167;28;20424;-83
2020/12/10 10:19:55;;;;;;;15.87;6.03;;;5.00;85.90;;;;;;5042341;28;20447;-86
2020/12/10 10:22:21;;;;;;;18.20;6.93;;;5.00;85.50;;;;;;5041757;28;20445;-86
2020/12/10 10:24:47;;;;;;;17.90;6.60;;;5.00;86.20;;;;;;5042212;28;20408;-85
2020/12/10 10:27:13;;;;;;;19.77;7.78;;;5.00;87.10;;;;;;5042536;28;20423;-83
2020/12/10 10:29:39;;;;;;;20.10;9.90;;;5.00;86.60;;;;;;5041421;28;20184;-86
2020/12/10 10:32:06;;;;;;;18.07;8.00;;;5.00;87.40;;;;;;5042407;28;20207;-85
2020/12/10 10:34:33;;;;;;;17.23;7.15;;;5.00;87.00;;;;;;5041157;28;20455;-86
2020/12/10 10:36:59;;;;;;;19.90;8.35;;;4.90;86.20;;;;;;5041825;28;20288;-84
2020/12/10 10:39:24;;;;;;;29.67;11.23;;;5.00;87.40;;;;;;5040392;28;20624;-86
2020/12/10 10:41:50;;;;;;;28.90;10.47;;;5.00;87.80;;;;;;5040450;28;20412;-84
2020/12/10 10:44:16;;;;;;;24.17;10.90;;;5.00;87.70;;;;;;5041353;28;20503;-87
2020/12/10 10:46:42;;;;;;;25.38;10.43;;;4.90;88.80;;;;;;5040299;28;20435;-87
2020/12/10 10:49:08;;;;;;;28.65;9.52;;;4.90;87.30;;;;;;5039341;28;20303;-83
2020/12/10 10:51:35;;;;;;;23.48;9.50;;;4.90;86.70;;;;;;5041678;28;20180;-86
2020/12/10 10:54:01;;;;;;;23.15;9.80;;;4.90;88.10;;;;;;5041573;28;20177;-87
2020/12/10 10:56:27;;;;;;;29.17;10.70;;;4.90;87.30;;;;;;5041869;28;20201;-86
2020/12/10 10:58:53;;;;;;;25.98;9.75;;;4.80;88.70;;;;;;5041179;28;20614;-84
2020/12/10 11:01:28;;;;;;;28.52;12.07;;;4.90;89.80;;;;;;5041581;28;20542;-87
2020/12/10 11:03:54;;;;;;;27.45;9.70;;;4.80;90.10;;;;;;5038317;28;20178;-87
2020/12/10 11:06:20;;;;;;;32.15;11.75;;;4.80;89.20;;;;;;5040830;28;20169;-86
2020/12/10 11:08:46;;;;;;;29.20;11.80;;;4.80;90.30;;;;;;5041967;28;20575;-84
2020/12/10 11:11:12;;;;;;;31.42;13.32;;;4.90;90.10;;;;;;5038929;28;20215;-82
2020/12/10 11:13:38;;;;;;;32.45;12.35;;;4.90;90.10;;;;;;5041540;28;20170;-83
2020/12/10 11:16:04;;;;;;;34.53;13.40;;;5.00;90.60;;;;;;5039032;28;20231;-87
2020/12/10 11:18:29;;;;;;;52.37;11.90;;;5.00;90.10;;;;;;5039280;28;20419;-83
2020/12/10 11:20:55;;;;;;;33.63;13.27;;;5.10;90.10;;;;;;5040264;28;20456;-82
2020/12/10 11:23:21;;;;;;;33.60;12.43;;;5.10;88.90;;;;;;5038092;28;20491;-86
2020/12/10 11:25:47;;;;;;;38.90;12.87;;;5.10;89.50;;;;;;5040376;28;20415;-84
2020/12/10 11:28:13;;;;;;;42.15;14.82;;;5.10;89.60;;;;;;5041030;28;20246;-83
2020/12/10 11:30:38;;;;;;;34.60;13.70;;;5.10;91.00;;;;;;5040937;28;20185;-83
2020/12/10 11:33:04;;;;;;;32.73;13.73;;;5.20;90.80;;;;;;5040269;28;20411;-83
2020/12/10 11:35:30;;;;;;;36.30;13.27;;;5.20;90.10;;;;;;5044292;28;20277;-87
2020/12/10 11:37:56;;;;;;;37.70;13.73;;;5.10;89.20;;;;;;5041526;28;20240;-83
2020/12/10 11:40:23;;;;;;;36.60;13.43;;;5.20;90.10;;;;;;5041401;28;20482;-84
2020/12/10 11:42:50;;;;;;;35.28;12.70;;;5.20;88.90;;;;;;5130169;22;20518;-84
2020/12/10 11:45:17;;;;;;;39.15;13.80;;;5.30;89.20;;;;;;5038067;28;20169;-81
2020/12/10 11:47:43;;;;;;;34.20;13.75;;;5.30;90.40;;;;;;5039780;28;20196;-81
2020/12/10 11:50:18;;;;;;;31.48;13.02;;;5.30;90.60;;;;;;5039131;28;20605;-81
2020/12/10 11:52:45;;;;;;;31.90;13.10;;;5.40;90.10;;;;;;5038950;28;20172;-81
2020/12/10 11:55:11;;;;;;;38.95;15.02;;;5.40;89.50;;;;;;5038605;28;20596;-82
2020/12/10 11:57:36;;;;;;;37.13;13.00;;;5.40;89.80;;;;;;5038722;28;20270;-82
2020/12/10 12:00:05;;;;;;;36.23;13.63;;;5.50;88.70;;;;;;5038478;28;20838;-82
2020/12/10 12:02:31;;;;;;;37.20;14.05;;;5.50;88.90;;;;;;5039501;28;20412;-82
2020/12/10 12:04:57;;;;;;;40.10;13.80;;;5.50;88.00;;;;;;5038824;28;20512;-81
2020/12/10 12:07:22;;;;;;;35.70;13.00;;;5.40;88.30;;;;;;5037821;28;20193;-81
2020/12/10 12:09:48;;;;;;;33.97;13.73;;;5.30;89.20;;;;;;5038840;28;20923;-81
2020/12/10 12:12:14;;;;;;;34.20;13.20;;;5.30;88.80;;;;;;5038037;28;20206;-82
2020/12/10 12:14:40;;;;;;;31.60;12.93;;;5.40;88.70;;;;;;5038680;28;20226;-82
2020/12/10 12:17:06;;;;;;;36.70;12.87;;;5.40;89.50;;;;;;5038437;28;20225;-82
2020/12/10 12:19:32;;;;;;;42.10;14.43;;;5.30;89.40;;;;;;5039144;28;20189;-81
2020/12/10 12:22:02;;;;;;;36.90;15.37;;;5.40;89.80;;;;;;5038294;28;20169;-81
2020/12/10 12:24:28;;;;;;;40.20;13.73;;;5.40;89.60;;;;;;5037984;28;20417;-81
2020/12/10 12:26:53;;;;;;;42.77;14.63;;;5.40;90.30;;;;;;5038063;28;20185;-81
2020/12/10 12:29:19;;;;;;;40.60;12.90;;;5.40;87.40;;;;;;5037898;28;20440;-81
2020/12/10 12:31:45;;;;;;;31.37;13.50;;;5.30;88.80;;;;;;5037506;28;20169;-81
2020/12/10 12:34:11;;;;;;;33.97;12.57;;;5.30;89.20;;;;;;5038852;28;20412;-81
2020/12/10 12:36:36;;;;;;;28.13;11.02;;;5.30;88.40;;;;;;5038611;28;20225;-81
2020/12/10 12:39:05;;;;;;;45.23;13.50;;;5.30;87.80;;;;;;5038479;28;20193;-80
2020/12/10 12:41:32;;;;;;;32.72;13.60;;;5.30;88.90;;;;;;5037893;28;20185;-82
2020/12/10 12:43:58;;;;;;;32.40;13.30;;;5.30;88.40;;;;;;5038741;28;20575;-81